Flight Track Log - Related Links

Times and Time Zones

All times are in EST time to prevent confusion due to time zone crossing. See the FIN664 flight status page for this flight to view local times or setup timezone preferences in your user account.

Time Position Orientation Groundspeed Altitude Reporting Facility
EST Latitude Longitude Course Direction KTS MPH feet Rate Location/Type
Mon 11:03:00 AM 55.8592 13.1550 49° Northeast  Level Estimated
Mon 11:04:00 AM 55.9392 13.3227 50° Northeast  Level Estimated
Mon 11:05:00 AM 56.0189 13.4911 50° Northeast  Level Estimated
Mon 11:06:00 AM 56.0985 13.6603 50° Northeast  Level Estimated
Mon 11:07:00 AM 56.1777 13.8301 50° Northeast  Level Estimated
Mon 11:08:00 AM 56.2568 14.0006 50° Northeast  Level Estimated
Mon 11:09:00 AM 56.3356 14.1718 50° Northeast  Level Estimated
Mon 11:10:00 AM 56.4142 14.3437 50° Northeast  Level Estimated
Mon 11:11:00 AM 56.4925 14.5164 51° Northeast  Level Estimated
Mon 11:12:00 AM 56.5706 14.6897 51° Northeast  Level Estimated
Mon 11:13:00 AM 56.6485 14.8638 51° Northeast  Level Estimated
Mon 11:14:00 AM 56.7261 15.0386 51° Northeast  Level Estimated
Mon 11:15:00 AM 56.8035 15.2141 51° Northeast  Level Estimated
Mon 11:16:00 AM 56.8806 15.3903 51° Northeast  Level Estimated
Mon 11:17:00 AM 56.9575 15.5673 51° Northeast  Level Estimated
Mon 11:18:00 AM 57.0341 15.7450 52° Northeast  Level Estimated
Mon 11:19:00 AM 57.1093 15.9207 52° Northeast  Level Estimated
Mon 11:20:00 AM 57.1843 16.0971 52° Northeast  Level Estimated
Mon 11:21:00 AM 57.2590 16.2742 52° Northeast  Level Estimated
Mon 11:22:00 AM 57.3335 16.4521 52° Northeast  Level Estimated
Mon 11:23:00 AM 57.4077 16.6307 52° Northeast  Level Estimated
Mon 11:24:00 AM 57.4817 16.8100 52° Northeast  Level Estimated
Mon 11:25:00 AM 57.5554 16.9900 53° Northeast  Level Estimated
Mon 11:26:00 AM 57.6288 17.1708 53° Northeast  Level Estimated
Mon 11:27:00 AM 57.7020 17.3523 53° Northeast  Level Estimated
Mon 11:28:00 AM 57.7749 17.5345 53° Northeast  Level Estimated
Mon 11:29:00 AM 57.8476 17.7174 53° Northeast  Level Estimated
Mon 11:30:00 AM 57.9200 17.9011 53° Northeast  Level Estimated
Mon 11:31:00 AM 57.9922 18.0856 54° Northeast  Level Estimated
Mon 11:32:00 AM 58.0640 18.2708 54° Northeast  Level Estimated
Mon 11:33:00 AM 58.1356 18.4567 54° Northeast  Level Estimated
Mon 11:34:00 AM 58.2070 18.6434 54° Northeast  Level Estimated
Mon 11:35:00 AM 58.2780 18.8308 54° Northeast  Level Estimated
Mon 11:36:00 AM 58.3488 19.0190 54° Northeast  Level Estimated
Mon 11:37:00 AM 58.4193 19.2079 54° Northeast  Level Estimated
Mon 11:38:00 AM 58.4896 19.3976 55° Northeast  Level Estimated
Mon 11:39:00 AM 58.5595 19.5881 55° Northeast  Level Estimated
Mon 11:40:00 AM 58.6292 19.7793 55° Northeast  Level Estimated
Mon 11:41:00 AM 58.6985 19.9713 55° Northeast  Level Estimated
Mon 11:42:00 AM 58.7676 20.1640 55° Northeast  Level Estimated
Mon 11:43:00 AM 58.8364 20.3575 55° Northeast  Level Estimated
Mon 11:44:00 AM 58.9049 20.5518 56° Northeast  Level Estimated
Mon 11:45:00 AM 58.9731 20.7468 56° Northeast  Level Estimated
Mon 11:46:00 AM 59.0411 20.9426 56° Northeast  Level Estimated
Mon 11:47:00 AM 59.1087 21.1392 56° Northeast  Level Estimated
Mon 11:48:00 AM 59.1771 21.3396 56° Northeast  Level Estimated
Mon 11:49:00 AM 59.2451 21.5408 56° Northeast  Level Estimated
Mon 11:50:00 AM 59.3129 21.7428 57° Northeast  Level Estimated
Mon 11:51:00 AM 59.3803 21.9457 57° Northeast  Level Estimated
Mon 11:52:00 AM 59.4474 22.1493 57° Northeast  Level Estimated
Mon 11:53:00 AM 59.5142 22.3537 57° Northeast  Level Estimated
Mon 11:54:00 AM 59.5807 22.5590 57° Northeast  Level Estimated
Mon 11:55:00 AM 59.6468 22.7650 58° Northeast  Level Estimated
Mon 11:56:00 AM 59.7126 22.9719 58° Northeast  Level Estimated
Mon 11:57:00 AM 59.7781 23.1795 58° Northeast  Level Estimated
Mon 11:58:00 AM 59.8433 23.3880 58° Northeast  Level Estimated
Mon 11:59:00 AM 59.9081 23.5973 58° Northeast  Level Estimated
Mon 12:00:00 PM 59.9727 23.8074 58° Northeast  Level Estimated
Mon 12:01:00 PM 60.0368 24.0184 59° Northeast  Level Estimated
Mon 12:02:00 PM 60.1007 24.2301 59° Northeast  Level Estimated
Mon 12:03:00 PM 60.1642 24.4427 59° Northeast  Level Estimated
Mon 12:04:00 PM 60.2273 24.6561 59° Northeast  Level Estimated
Mon 12:05:00 PM 60.2901 24.8703 59° Northeast  Level Estimated
Mon 12:06:00 PM 60.3172 24.9633 60° Northeast  Level Estimated
Mon 12:07:00 PM 60.3172 24.9633 37° Northeast  Level Estimated
Mon 12:08:00 PM 60.3172 24.9633 37° Northeast  Level Estimated
Mon 12:09:00 PM 60.3172 24.9633 37° Northeast  Level Estimated
Mon 12:10:00 PM 60.3172 24.9633 37° Northeast  Level Estimated
Mon 12:11:00 PM 60.3172 24.9633 37° Northeast  Level Estimated
Mon 12:12:00 PM 60.3172 24.9633 37° Northeast  Level Estimated
Mon 12:13:00 PM 60.3172 24.9633 37° Northeast  Level Estimated
Mon 12:14:00 PM 60.3172 24.9633 37° Northeast  Level Estimated
Mon 12:15:00 PM 60.3172 24.9633 37° Northeast  Level Estimated
Mon 12:16:00 PM 60.3172 24.9633 37° Northeast  Level Estimated

Login

Don't have an account? Register now (free) for customized features, flight alerts, and more!